Richmond International Airport Richmond US
ICAO: KRIC
IATA: RIC
Category: Large
Scheduled Services: Yes

Elevation: 167 ft
TransAlt. 18000 ft.

Airport Communications:
POTOMAC APP/DEP:118.2
ATIS:119.15
CLNC DEL:127.55
GND:121.9
ARNG OPS:40.2
ANG OPS:142.175
LEESBURG RDO:122.2
TWR:121.1
UNICOM:122.95

KRIC Zoom In..

Runways:

(A) RW 02 length 6607 ft width 150 ft
ILS 110.90 / hdg 22

(B) RW 07 length 5326 ft width 100 ft
---- / hdg 66

(C) RW 16 length 9003 ft width 150 ft
ILS 110.70 / hdg 156

(D) RW 20 length 6607 ft width 150 ft
---- / hdg 202

(E) RW 25 length 5326 ft width 100 ft
---- / hdg 246

(F) RW 34 length 9003 ft width 150 ft
ILS 110.70 / hdg 336

Location; KRIC
Day. 31 / Time. 11.54 Zulu
* Altimeter: 30.13
* Temperature: 18° c. 64.4°f.
* Wind from: 360° Speed 11 kn.
Dewpoint: 07° c.
Visibility: 10 Statute Miles.
Clouds: Scattered 6500 ft.

KRIC 311154Z 36011KT 10SM SCT065 18/07 A3013 RMK AO2 SLP205 70001 T01830072 10200 20172 51027 $


Wind From 360°
Speed 11 kn.

 
 
jpsmedia worldairports.se 2020   terms of use